Al Hamla — V7MX9 — position and weather

sailwx.info

Track history (hours):
 
Tides and Currents Weather Stations Pressure Air Temp Water Temp Dewpoint Dewpoint Depression Visibility Wind Speed Wind Dir Waves Ship Positions

Al Hamla

Last reported at 2014-Aug-09 08:31 UTC. Time now 2014-Aug-30 10:33 UTC.
Position N 01°11' E 103°38'.
Warning: this ship's position is 21 days out of date.

Length 340 m; draft 9.6 m.

Type: Tanker. MMSI: 538002922.

Date/timePositionNaut miles runAvg speedWind from/ knotsBaromVisibWave heightAir tempDewpointWater temp
2014-Aug-09 08:31N 01°11' E 103°38'3 0.6
2014-Aug-09 03:13N 01°12' E 103°41'0 0.1
2014-Aug-09 02:31N 01°12' E 103°41'0 0.0
2014-Aug-09 00:18N 01°11' E 103°41'0 0.1
2014-Aug-08 22:28N 01°11' E 103°41'7 0.8
2014-Aug-08 13:30N 01°11' E 103°48'7 7.9
2014-Aug-08 12:33N 01°14' E 103°55'1110.5
2014-Aug-08 11:33N 01°16' E 104°05'  
2014-Aug-02 10:33N 33°53' E 134°56'1312.9
2014-Aug-02 09:33N 34°06' E 134°57'1211.8
2014-Aug-02 08:33N 34°18' E 134°59'1413.9
2014-Aug-02 07:33N 34°31' E 135°05'7 6.7
2014-Aug-02 06:33N 34°37' E 135°01'1412.9
2014-Aug-02 05:30N 34°33' E 134°45'1312.5
2014-Aug-02 04:27N 34°45' E 134°41'8 0.2
2014-Jul-31 20:26N 34°37' E 134°42'1211.0
2014-Jul-31 19:18N 34°37' E 134°57'810.4
2014-Jul-31 18:33N 34°35' E 135°06'7 6.6
2014-Jul-31 17:33N 34°29' E 135°07'1211.3
2014-Jul-31 16:32N 34°19' E 134°60'1111.6
2014-Jul-31 15:33N 34°07' E 134°60'9 8.7
2014-Jul-31 14:33N 33°59' E 134°59'  
Track history (hours):
 
Tides and Currents Weather Stations Pressure Air Temp Water Temp Dewpoint Dewpoint Depression Visibility Wind Speed Wind Dir Waves Ship Positions

Al Hamla

Last reported at 2014-Aug-09 08:31 UTC. Time now 2014-Aug-30 10:33 UTC.
Position N 01°11' E 103°38'.
Warning: this ship's position is 21 days out of date.

Length 340 m; draft 9.6 m.

Type: Tanker. MMSI: 538002922.

Date/timePositionNaut miles runAvg speedWind from/ knotsBaromVisibWave heightAir tempDewpointWater temp
2014-Aug-09 08:31N 01°11' E 103°38'3 0.6
2014-Aug-09 03:13N 01°12' E 103°41'0 0.1
2014-Aug-09 02:31N 01°12' E 103°41'0 0.0
2014-Aug-09 00:18N 01°11' E 103°41'0 0.1
2014-Aug-08 22:28N 01°11' E 103°41'7 0.8
2014-Aug-08 13:30N 01°11' E 103°48'7 7.9
2014-Aug-08 12:33N 01°14' E 103°55'1110.5
2014-Aug-08 11:33N 01°16' E 104°05'  
2014-Aug-02 10:33N 33°53' E 134°56'1312.9
2014-Aug-02 09:33N 34°06' E 134°57'1211.8
2014-Aug-02 08:33N 34°18' E 134°59'1413.9
2014-Aug-02 07:33N 34°31' E 135°05'7 6.7
2014-Aug-02 06:33N 34°37' E 135°01'1412.9
2014-Aug-02 05:30N 34°33' E 134°45'1312.5
2014-Aug-02 04:27N 34°45' E 134°41'8 0.2
2014-Jul-31 20:26N 34°37' E 134°42'1211.0
2014-Jul-31 19:18N 34°37' E 134°57'810.4
2014-Jul-31 18:33N 34°35' E 135°06'7 6.6
2014-Jul-31 17:33N 34°29' E 135°07'1211.3
2014-Jul-31 16:32N 34°19' E 134°60'1111.6
2014-Jul-31 15:33N 34°07' E 134°60'9 8.7
2014-Jul-31 14:33N 33°59' E 134°59'  

Dump ship's entire track history